Skip Navigation Links www.nws.noaa.gov 
NOAA logo - Click to go to the NOAA homepage National Weather Service   NWS logo - Click to go to the NWS homepage
NCEP Central Operations
Search 
   

Local forecast by
"City, St"

Search NCO
NCEP Home > NCEP Central Operations > Data Management and Quality Assessment Branch > Quality Assessment Project > Raob Data Manual Quality Control Reports > Mexican Raob Data Manual Quality Control Reports

Latest Mexican Raob Data Manual Quality Control Report Printer image icon. Printer Friendly Version

Latest Mexican Raob Data Manual Quality Control Report

Previous Mexican Raob Data Manual Quality Control Reports
PAGE 1

                RAOB DATA MANUAL QUALITY CONTROL (QC) REPORT
                                  MEXICAN
                       From 20140701 through 20140731

 ___DATE___ HOUR REASN DETAILS...

76225/CUU
   20140717  12Z 10159 10159

1 record found

76256/GYM
   20140712  12Z DELET Purged temps 1000-700mb...too cold...purged all hgts...
                       too low
   20140719  12Z 10158 10158...Flight equipment failure.
   20140720  12Z 10158 10158...Flight equipment failure.
   20140722  12Z 10142 10142...Ground equipment failure
   20140723  12Z 10158 10158...Flight equipment failure
   20140724  12Z 10158 10158...Flight equipment failure
   20140725  12Z 10142 10142; ground equip problem..
   20140726  12Z 10142 10142; Ground equip problems.
   20140728  12Z 10158 10158; Flight equip problems..
   20140729  12Z 10142 10142.
   20140730  12Z 10142 10142.
   20140731  12Z 10158 10158

12 records found

76394/MTY
   20140725  00Z DELET Purged temp/rh 926-849 mb...super-adiabatic

1 record found

76458/MZT
   20140713  00Z 10158 10158.
   20140714  00Z 10158 10158.
   20140715  00Z 10158 10158...Flight equipment failure.
   20140716  00Z 10158 10158
   20140717  00Z 10158 10158; Flight equip problems..
   20140717  12Z 10158 10158...Flight equipment failure
   20140718  00Z 10158 10158; Flight equip problem..
   20140718  12Z 10158 10158...Flight equipment failure.
   20140719  00Z 10158 10158; Flight equip problem..
   20140724  12Z 10144 10144...Power failure
   20140725  00Z 10144 10144...power failure

11 records found

76595/CUN
   20140713  12Z DELET Purged all hgts and temps...high and warm

1 record found

76612/GDL
   20140711  00Z DELET Purged winds 259-257 mb...bad spd
   20140719  00Z 10142 10142; Ground equip problem..

2 records found

76644/MID
   20140722  12Z DELET Purged temp/RH 1000-962mb...wet-bulb effect

1 record found

76654/MZL
   20140705  00Z 10142 10142
   20140721  12Z DELET Purged winds 155-119mb...too light
   20140727  12Z 10142 10142; Ground equip problems..

3 records found

76692/HYY
   20140701  00Z 10158 10158...flight equipment failure
   20140702  00Z 10158 10158...flight equipment failure
   20140703  00Z 10158 10158...flight equipment failure
   20140704  00Z 10158 10158
   20140705  00Z 10158 10158
   20140706  00Z 10158 Flight equipment failure...10158
   20140707  00Z 10158 Flight equipment failure...10158
   20140711  00Z 10158 10158...flight equipment failure
   20140712  00Z 10158 10158...flight equipment failure
   20140713  00Z 10158 10158.
   20140714  00Z 10158 10158.
   20140716  00Z 10158 10158
   20140717  00Z 10158 10158; Flight equip problems..
   20140717  12Z DELET Purged temp/RH 959-925 mb...wet-bulb effect
   20140719  00Z 10158 10158; Flight equip problem..
   20140721  00Z 10158 10158
   20140722  00Z 10158 Flight equipment failure...10158
   20140723  00Z 10158 10158.
   20140724  00Z 10158 10158.
   20140724  12Z SHORT Short to 472mb
   20140725  00Z 10158 Flight equipment failure...10158
   20140726  00Z 10158 10158...flight equipment failure
   20140727  00Z 10158 10158...flight equipment failure
   20140728  00Z 10158 10158...flight equipment failure
   20140729  00Z 10158 10158...flight equipment failure
   20140730  00Z 10158 10158...flight equipment failure
   20140731  00Z 10158 10158

27 records found

76743/VHA
   20140702  12Z 10158 10158
   20140712  12Z DELET Purged hgts and temps 150mb and up...high and warm
   20140729  12Z 10158 10158.

3 records found

76805/ACA
   20140701  12Z 10158 10158
   20140702  12Z 10158 10158
   20140703  12Z 10158 10158
   20140705  12Z 10158 10158.
   20140706  12Z 10158 10158.
   20140707  12Z 10158 10158...flight equipment failure
   20140708  12Z 10158 10158...Flight equipment failure
   20140709  12Z 10158 10158...Flight equipment failure
   20140710  12Z 10158 10158...Flight equipment failure
   20140711  12Z 10158 10158...Flight equipment failure.
   20140712  12Z 10158 10158
   20140713  12Z 10158 10158
   20140714  12Z 10158 10158...Flight equipment failure
   20140716  12Z 10158 10158...Flight equipment failure
   20140718  12Z DELET Purged temps/moisture 929-816mb...too cold.
   20140726  12Z 10158 10158; Flight equip problems.
   20140727  12Z 10158 10158; Flight equip problems..
   20140728  12Z 10158 10158; Flight equip problems..
   20140729  12Z 10158 10158.
   20140730  12Z 10158 10158.

20 records found

76903/TAP
   20140702  12Z DELET Purged all hgts...too low...purged temps 183mb and up..
                       too high..then too low
   20140704  12Z DELET Deleted all data above 110 mb...erratic.
   20140715  12Z DELET Purge hts 300mb up low..
   20140725  12Z DELET Purge hts all; low..

4 records found


SELECTED STATIONS WITH NO SDM QC:
  76405/LAP  76526/ZAC  76679/MEX


This and related reports are available on the Web at . . .
http://www.nco.ncep.noaa.gov/sib/qap/raobqc/

  

NOAA/ National Weather Service
National Centers for Environmental Prediction
NCEP Central Operations
5830 University Research Court
College Park, MD 20740
NCO Web Team
Disclaimer Privacy Policy
Page last modified: Tuesday, 14-Sep-2004 17:34:26 UTC